sensor_id;sensor_type;location;lat;lon;timestamp;pressure;altitude;pressure_sealevel;temperature;humidity
58843;BME280;44614;54.356;10.100;2022-09-02T00:00:35;102130.44;;;12.58;67.95
58843;BME280;44614;54.356;10.100;2022-09-02T00:03:05;102124.28;;;12.56;68.03
58843;BME280;44614;54.356;10.100;2022-09-02T00:05:30;102127.84;;;12.50;68.35
58843;BME280;44614;54.356;10.100;2022-09-02T00:07:56;102107.91;;;12.41;68.21
58843;BME280;44614;54.356;10.100;2022-09-02T00:10:21;102114.28;;;12.48;68.39
58843;BME280;44614;54.356;10.100;2022-09-02T00:12:46;102127.19;;;12.48;68.26
58843;BME280;44614;54.356;10.100;2022-09-02T00:15:12;102122.75;;;12.47;68.58
58843;BME280;44614;54.356;10.100;2022-09-02T00:17:38;102122.31;;;12.43;68.35
58843;BME280;44614;54.356;10.100;2022-09-02T00:20:04;102116.34;;;12.39;68.60
58843;BME280;44614;54.356;10.100;2022-09-02T00:22:29;102106.56;;;12.30;68.63
58843;BME280;44614;54.356;10.100;2022-09-02T00:24:54;102116.13;;;12.34;68.87
58843;BME280;44614;54.356;10.100;2022-09-02T00:27:20;102109.31;;;12.30;68.69
58843;BME280;44614;54.356;10.100;2022-09-02T00:29:45;102103.59;;;12.25;68.89
58843;BME280;44614;54.356;10.100;2022-09-02T00:32:10;102105.28;;;12.26;68.83
58843;BME280;44614;54.356;10.100;2022-09-02T00:34:36;102108.44;;;12.23;69.14
58843;BME280;44614;54.356;10.100;2022-09-02T00:37:01;102110.97;;;12.18;69.16
58843;BME280;44614;54.356;10.100;2022-09-02T00:39:26;102106.47;;;12.17;68.99
58843;BME280;44614;54.356;10.100;2022-09-02T00:41:52;102101.41;;;12.14;69.30
58843;BME280;44614;54.356;10.100;2022-09-02T00:44:18;102101.81;;;12.11;69.30
58843;BME280;44614;54.356;10.100;2022-09-02T00:46:45;102116.19;;;12.06;69.39
58843;BME280;44614;54.356;10.100;2022-09-02T00:49:23;102102.59;;;12.05;69.27
58843;BME280;44614;54.356;10.100;2022-09-02T00:54:25;102109.56;;;12.01;69.33
58843;BME280;44614;54.356;10.100;2022-09-02T00:56:51;102108.94;;;11.99;69.32
58843;BME280;44614;54.356;10.100;2022-09-02T00:59:25;102119.28;;;11.97;69.49
58843;BME280;44614;54.356;10.100;2022-09-02T01:01:51;102104.22;;;11.92;69.23
58843;BME280;44614;54.356;10.100;2022-09-02T01:04:16;102108.22;;;11.90;69.43
58843;BME280;44614;54.356;10.100;2022-09-02T01:06:42;102115.63;;;11.89;69.55
58843;BME280;44614;54.356;10.100;2022-09-02T01:09:14;102105.00;;;11.86;69.53
58843;BME280;44614;54.356;10.100;2022-09-02T01:11:47;102100.31;;;11.80;69.46
58843;BME280;44614;54.356;10.100;2022-09-02T01:14:14;102093.50;;;11.76;69.73
58843;BME280;44614;54.356;10.100;2022-09-02T01:16:46;102089.03;;;11.75;69.49
58843;BME280;44614;54.356;10.100;2022-09-02T01:19:24;102098.34;;;11.74;69.78
58843;BME280;44614;54.356;10.100;2022-09-02T01:21:55;102049.44;;;11.41;69.67
58843;BME280;44614;54.356;10.100;2022-09-02T01:24:24;102098.72;;;11.71;69.76
58843;BME280;44614;54.356;10.100;2022-09-02T01:26:55;102096.41;;;11.68;69.56
58843;BME280;44614;54.356;10.100;2022-09-02T01:29:22;102095.94;;;11.64;69.84
58843;BME280;44614;54.356;10.100;2022-09-02T01:31:48;102093.78;;;11.60;71.94
58843;BME280;44614;54.356;10.100;2022-09-02T01:34:14;102081.75;;;11.39;70.74
58843;BME280;44614;54.356;10.100;2022-09-02T01:36:41;102097.97;;;11.56;70.22
58843;BME280;44614;54.356;10.100;2022-09-02T01:39:08;102094.59;;;11.54;70.10
58843;BME280;44614;54.356;10.100;2022-09-02T01:41:34;102101.31;;;11.51;70.05
58843;BME280;44614;54.356;10.100;2022-09-02T01:43:59;102101.09;;;11.46;70.22
58843;BME280;44614;54.356;10.100;2022-09-02T01:46:25;102095.75;;;11.44;70.30
58843;BME280;44614;54.356;10.100;2022-09-02T01:48:50;102039.66;;;11.11;70.42
58843;BME280;44614;54.356;10.100;2022-09-02T01:51:18;102094.28;;;11.42;70.34
58843;BME280;44614;54.356;10.100;2022-09-02T01:53:44;102089.38;;;11.37;70.49
58843;BME280;44614;54.356;10.100;2022-09-02T01:56:10;102091.47;;;11.35;70.49
58843;BME280;44614;54.356;10.100;2022-09-02T01:58:37;102069.06;;;11.17;70.55
58843;BME280;44614;54.356;10.100;2022-09-02T02:01:03;102092.91;;;11.31;70.58
58843;BME280;44614;54.356;10.100;2022-09-02T02:03:28;102093.97;;;11.30;70.45
58843;BME280;44614;54.356;10.100;2022-09-02T02:05:53;102092.66;;;11.26;70.67
58843;BME280;44614;54.356;10.100;2022-09-02T02:08:20;102085.66;;;11.23;70.81
58843;BME280;44614;54.356;10.100;2022-09-02T02:10:46;102093.22;;;11.21;70.85
58843;BME280;44614;54.356;10.100;2022-09-02T02:13:12;102080.06;;;11.17;70.91
58843;BME280;44614;54.356;10.100;2022-09-02T02:15:39;102089.59;;;11.14;70.96
58843;BME280;44614;54.356;10.100;2022-09-02T02:18:06;102092.50;;;11.13;70.97
58843;BME280;44614;54.356;10.100;2022-09-02T02:20:32;102083.63;;;11.11;71.11
58843;BME280;44614;54.356;10.100;2022-09-02T02:22:57;102080.41;;;11.07;71.26
58843;BME280;44614;54.356;10.100;2022-09-02T02:25:22;102076.16;;;11.05;71.26
58843;BME280;44614;54.356;10.100;2022-09-02T02:27:48;102088.38;;;11.02;71.10
58843;BME280;44614;54.356;10.100;2022-09-02T02:30:15;102039.69;;;10.74;71.08
58843;BME280;44614;54.356;10.100;2022-09-02T02:32:42;102087.06;;;10.98;71.16
58843;BME280;44614;54.356;10.100;2022-09-02T02:35:09;102094.47;;;10.97;71.16
58843;BME280;44614;54.356;10.100;2022-09-02T02:37:35;102074.69;;;10.87;71.31
58843;BME280;44614;54.356;10.100;2022-09-02T02:40:01;102076.59;;;10.87;71.32
58843;BME280;44614;54.356;10.100;2022-09-02T02:42:27;102077.66;;;10.86;71.05
58843;BME280;44614;54.356;10.100;2022-09-02T02:44:52;102078.50;;;10.86;71.38
58843;BME280;44614;54.356;10.100;2022-09-02T02:47:17;102086.28;;;10.83;71.32
58843;BME280;44614;54.356;10.100;2022-09-02T02:49:43;102083.75;;;10.81;71.54
58843;BME280;44614;54.356;10.100;2022-09-02T02:52:10;102087.25;;;10.75;71.42
58843;BME280;44614;54.356;10.100;2022-09-02T02:54:36;102088.97;;;10.76;71.31
58843;BME280;44614;54.356;10.100;2022-09-02T02:57:03;102086.59;;;10.73;71.36
58843;BME280;44614;54.356;10.100;2022-09-02T02:59:29;102080.44;;;10.71;71.51
58843;BME280;44614;54.356;10.100;2022-09-02T03:01:55;102077.44;;;10.66;71.54
58843;BME280;44614;54.356;10.100;2022-09-02T03:04:20;102087.75;;;10.64;71.74
58843;BME280;44614;54.356;10.100;2022-09-02T03:06:46;102087.09;;;10.62;71.80
58843;BME280;44614;54.356;10.100;2022-09-02T03:09:12;102085.59;;;10.59;72.17
58843;BME280;44614;54.356;10.100;2022-09-02T03:11:38;102092.97;;;10.59;71.89
58843;BME280;44614;54.356;10.100;2022-09-02T03:14:03;102085.13;;;10.56;71.94
58843;BME280;44614;54.356;10.100;2022-09-02T03:16:29;102086.38;;;10.53;71.81
58843;BME280;44614;54.356;10.100;2022-09-02T03:18:55;102079.09;;;10.45;71.88
58843;BME280;44614;54.356;10.100;2022-09-02T03:21:20;102081.63;;;10.47;72.16
58843;BME280;44614;54.356;10.100;2022-09-02T03:23:46;102082.69;;;10.46;72.02
58843;BME280;44614;54.356;10.100;2022-09-02T03:26:18;102067.19;;;10.38;72.03
58843;BME280;44614;54.356;10.100;2022-09-02T03:28:43;102075.69;;;10.43;72.04
58843;BME280;44614;54.356;10.100;2022-09-02T03:31:14;102070.56;;;10.40;71.91
58843;BME280;44614;54.356;10.100;2022-09-02T03:33:39;102075.97;;;10.34;72.21
58843;BME280;44614;54.356;10.100;2022-09-02T03:36:05;102079.13;;;10.31;72.30
58843;BME280;44614;54.356;10.100;2022-09-02T03:38:30;102072.75;;;10.30;72.39
58843;BME280;44614;54.356;10.100;2022-09-02T03:40:56;102067.00;;;10.25;72.19
58843;BME280;44614;54.356;10.100;2022-09-02T03:43:21;102068.50;;;10.28;72.26
58843;BME280;44614;54.356;10.100;2022-09-02T03:45:46;102023.53;;;9.99;72.14
58843;BME280;44614;54.356;10.100;2022-09-02T03:48:13;102047.75;;;10.10;72.29
58843;BME280;44614;54.356;10.100;2022-09-02T03:50:41;102064.59;;;10.22;72.48
58843;BME280;44614;54.356;10.100;2022-09-02T03:53:07;102066.69;;;10.20;72.61
58843;BME280;44614;54.356;10.100;2022-09-02T03:55:35;102066.00;;;10.18;72.51
58843;BME280;44614;54.356;10.100;2022-09-02T03:58:01;102047.13;;;10.08;72.62
58843;BME280;44614;54.356;10.100;2022-09-02T04:00:26;102060.47;;;10.11;72.58
58843;BME280;44614;54.356;10.100;2022-09-02T04:02:56;102063.00;;;10.13;72.56
58843;BME280;44614;54.356;10.100;2022-09-02T04:05:23;102061.31;;;10.12;72.29
58843;BME280;44614;54.356;10.100;2022-09-02T04:07:48;102058.72;;;10.10;72.46
58843;BME280;44614;54.356;10.100;2022-09-02T04:10:17;102057.03;;;10.09;72.25
58843;BME280;44614;54.356;10.100;2022-09-02T04:12:43;102055.53;;;10.07;72.47
58843;BME280;44614;54.356;10.100;2022-09-02T04:15:09;102056.78;;;10.04;72.34
58843;BME280;44614;54.356;10.100;2022-09-02T04:17:36;102059.03;;;10.00;73.79
58843;BME280;44614;54.356;10.100;2022-09-02T04:20:04;102058.38;;;9.98;72.95
58843;BME280;44614;54.356;10.100;2022-09-02T04:22:31;102065.53;;;9.99;72.56
58843;BME280;44614;54.356;10.100;2022-09-02T04:24:56;102021.75;;;9.76;72.51
58843;BME280;44614;54.356;10.100;2022-09-02T04:27:22;102058.94;;;9.94;72.71
58843;BME280;44614;54.356;10.100;2022-09-02T04:29:47;102058.09;;;9.93;72.78
58843;BME280;44614;54.356;10.100;2022-09-02T04:32:12;102060.00;;;9.93;72.83
58843;BME280;44614;54.356;10.100;2022-09-02T04:34:38;102070.97;;;9.93;72.95
58843;BME280;44614;54.356;10.100;2022-09-02T04:37:03;102047.00;;;9.87;73.00
58843;BME280;44614;54.356;10.100;2022-09-02T04:39:28;102060.56;;;9.88;73.20
58843;BME280;44614;54.356;10.100;2022-09-02T04:41:54;102053.72;;;9.84;73.17
58843;BME280;44614;54.356;10.100;2022-09-02T04:44:19;102046.91;;;9.80;73.37
58843;BME280;44614;54.356;10.100;2022-09-02T04:46:45;102025.34;;;9.62;73.34
58843;BME280;44614;54.356;10.100;2022-09-02T04:49:11;102051.38;;;9.81;73.37
58843;BME280;44614;54.356;10.100;2022-09-02T04:51:36;102061.69;;;9.79;73.71
58843;BME280;44614;54.356;10.100;2022-09-02T04:54:01;102062.53;;;9.80;73.69
58843;BME280;44614;54.356;10.100;2022-09-02T04:56:29;102065.09;;;9.81;73.60
58843;BME280;44614;54.356;10.100;2022-09-02T04:58:55;102062.34;;;9.81;73.60
58843;BME280;44614;54.356;10.100;2022-09-02T05:01:24;102054.13;;;9.81;73.55
58843;BME280;44614;54.356;10.100;2022-09-02T05:03:50;102052.41;;;9.80;73.63
58843;BME280;44614;54.356;10.100;2022-09-02T05:06:18;102062.63;;;9.86;73.66
58843;BME280;44614;54.356;10.100;2022-09-02T05:08:44;102058.84;;;9.87;73.74
58843;BME280;44614;54.356;10.100;2022-09-02T05:11:15;102066.91;;;9.89;73.73
58843;BME280;44614;54.356;10.100;2022-09-02T05:13:46;102068.97;;;9.87;73.88
58843;BME280;44614;54.356;10.100;2022-09-02T05:16:21;102062.63;;;9.86;74.08
58843;BME280;44614;54.356;10.100;2022-09-02T05:18:47;102065.38;;;9.86;73.98
58843;BME280;44614;54.356;10.100;2022-09-02T05:21:13;102032.63;;;9.70;74.08
58843;BME280;44614;54.356;10.100;2022-09-02T05:23:38;102064.06;;;9.82;74.31
58843;BME280;44614;54.356;10.100;2022-09-02T05:26:05;101858.13;;;8.65;74.24
58843;BME280;44614;54.356;10.100;2022-09-02T05:28:30;102067.75;;;9.89;74.81
58843;BME280;44614;54.356;10.100;2022-09-02T05:31:02;102082.50;;;9.88;74.41
58843;BME280;44614;54.356;10.100;2022-09-02T05:33:30;102065.47;;;9.93;74.68
58843;BME280;44614;54.356;10.100;2022-09-02T05:35:55;102070.66;;;10.02;74.66
58843;BME280;44614;54.356;10.100;2022-09-02T05:38:21;102038.59;;;9.88;74.75
58843;BME280;44614;54.356;10.100;2022-09-02T05:40:46;102076.72;;;10.13;74.73
58843;BME280;44614;54.356;10.100;2022-09-02T05:43:11;102028.97;;;9.92;74.77
58843;BME280;44614;54.356;10.100;2022-09-02T05:45:37;102078.91;;;10.32;74.72
58843;BME280;44614;54.356;10.100;2022-09-02T05:48:03;102074.84;;;10.43;75.05
58843;BME280;44614;54.356;10.100;2022-09-02T05:50:48;102064.59;;;10.52;75.14
58843;BME280;44614;54.356;10.100;2022-09-02T05:53:14;102076.63;;;10.72;75.20
58843;BME280;44614;54.356;10.100;2022-09-02T05:55:39;102060.16;;;10.72;75.35
58843;BME280;44614;54.356;10.100;2022-09-02T05:58:05;102067.53;;;11.08;76.31
58843;BME280;44614;54.356;10.100;2022-09-02T06:00:30;102071.56;;;11.33;77.14
58843;BME280;44614;54.356;10.100;2022-09-02T06:02:56;102067.91;;;11.54;76.95
58843;BME280;44614;54.356;10.100;2022-09-02T06:05:22;102012.06;;;11.54;78.17
58843;BME280;44614;54.356;10.100;2022-09-02T06:07:47;102067.88;;;12.04;77.08
58843;BME280;44614;54.356;10.100;2022-09-02T06:10:13;102067.13;;;12.23;76.66
58843;BME280;44614;54.356;10.100;2022-09-02T06:12:38;102067.59;;;12.40;76.05
58843;BME280;44614;54.356;10.100;2022-09-02T06:15:04;102035.66;;;12.46;77.05
58843;BME280;44614;54.356;10.100;2022-09-02T06:17:29;102052.91;;;12.81;76.63
58843;BME280;44614;54.356;10.100;2022-09-02T06:19:55;102065.06;;;13.06;76.20
58843;BME280;44614;54.356;10.100;2022-09-02T06:22:20;102096.41;;;12.92;75.49
58843;BME280;44614;54.356;10.100;2022-09-02T06:24:45;102056.63;;;13.41;75.16
58843;BME280;44614;54.356;10.100;2022-09-02T06:27:11;102019.28;;;13.32;76.14
58843;BME280;44614;54.356;10.100;2022-09-02T06:29:36;102022.22;;;13.50;75.22
58843;BME280;44614;54.356;10.100;2022-09-02T06:32:02;102058.50;;;13.87;75.08
58843;BME280;44614;54.356;10.100;2022-09-02T06:34:28;102063.13;;;14.06;75.00
58843;BME280;44614;54.356;10.100;2022-09-02T06:36:53;102070.91;;;14.23;74.12
58843;BME280;44614;54.356;10.100;2022-09-02T06:39:20;102063.44;;;14.36;73.51
58843;BME280;44614;54.356;10.100;2022-09-02T06:41:47;102018.41;;;14.29;72.97
58843;BME280;44614;54.356;10.100;2022-09-02T06:44:13;102061.38;;;14.77;72.48
58843;BME280;44614;54.356;10.100;2022-09-02T06:46:43;102054.28;;;14.87;71.96
58843;BME280;44614;54.356;10.100;2022-09-02T06:49:09;102019.03;;;14.76;71.23
58843;BME280;44614;54.356;10.100;2022-09-02T06:51:36;102061.63;;;15.32;70.88
58843;BME280;44614;54.356;10.100;2022-09-02T06:54:04;102067.69;;;15.47;70.62
58843;BME280;44614;54.356;10.100;2022-09-02T06:56:31;102064.56;;;15.62;69.94
58843;BME280;44614;54.356;10.100;2022-09-02T06:58:57;102059.41;;;15.72;69.56
58843;BME280;44614;54.356;10.100;2022-09-02T07:01:26;102057.97;;;15.88;69.46
58843;BME280;44614;54.356;10.100;2022-09-02T07:03:52;102059.72;;;16.01;68.74
58843;BME280;44614;54.356;10.100;2022-09-02T07:06:44;102061.13;;;16.28;68.32
58843;BME280;44614;54.356;10.100;2022-09-02T07:09:12;102049.88;;;16.42;68.08
58843;BME280;44614;54.356;10.100;2022-09-02T07:11:38;102049.00;;;16.60;67.95
58843;BME280;44614;54.356;10.100;2022-09-02T07:14:04;102054.53;;;16.78;67.66
58843;BME280;44614;54.356;10.100;2022-09-02T07:16:33;102059.66;;;16.93;66.02
58843;BME280;44614;54.356;10.100;2022-09-02T07:19:01;102047.38;;;17.00;66.39
58843;BME280;44614;54.356;10.100;2022-09-02T07:21:30;102054.16;;;17.16;66.26
58843;BME280;44614;54.356;10.100;2022-09-02T07:23:59;102050.22;;;17.36;65.89
58843;BME280;44614;54.356;10.100;2022-09-02T07:26:25;102046.63;;;17.47;65.37
58843;BME280;44614;54.356;10.100;2022-09-02T07:28:51;102044.47;;;17.61;64.88
58843;BME280;44614;54.356;10.100;2022-09-02T07:31:17;102042.31;;;17.74;63.54
58843;BME280;44614;54.356;10.100;2022-09-02T07:33:43;102047.38;;;17.77;63.40
58843;BME280;44614;54.356;10.100;2022-09-02T07:36:10;102053.19;;;17.88;63.47
58843;BME280;44614;54.356;10.100;2022-09-02T07:38:36;102049.56;;;17.87;57.78
58843;BME280;44614;54.356;10.100;2022-09-02T07:41:04;102041.84;;;18.01;62.19
58843;BME280;44614;54.356;10.100;2022-09-02T07:43:30;102033.31;;;18.19;61.66
58843;BME280;44614;54.356;10.100;2022-09-02T07:45:57;102041.53;;;18.26;60.81
58843;BME280;44614;54.356;10.100;2022-09-02T07:48:25;102045.88;;;18.34;60.58
58843;BME280;44614;54.356;10.100;2022-09-02T07:50:51;102035.34;;;18.36;60.15
58843;BME280;44614;54.356;10.100;2022-09-02T07:53:17;102042.97;;;18.29;60.06
58843;BME280;44614;54.356;10.100;2022-09-02T07:55:44;102044.06;;;18.27;57.09
58843;BME280;44614;54.356;10.100;2022-09-02T07:58:10;102038.41;;;18.22;59.57
58843;BME280;44614;54.356;10.100;2022-09-02T08:00:37;102045.38;;;18.37;58.38
58843;BME280;44614;54.356;10.100;2022-09-02T08:03:03;102044.72;;;18.46;58.32
58843;BME280;44614;54.356;10.100;2022-09-02T08:05:32;102037.25;;;18.47;57.89
58843;BME280;44614;54.356;10.100;2022-09-02T08:07:58;102036.72;;;18.50;58.36
58843;BME280;44614;54.356;10.100;2022-09-02T08:10:24;102034.75;;;18.74;57.71
58843;BME280;44614;54.356;10.100;2022-09-02T08:12:53;102036.38;;;18.87;56.52
58843;BME280;44614;54.356;10.100;2022-09-02T08:15:18;102018.50;;;18.83;55.44
58843;BME280;44614;54.356;10.100;2022-09-02T08:17:45;102036.81;;;18.95;52.58
58843;BME280;44614;54.356;10.100;2022-09-02T08:20:11;102034.63;;;18.97;53.55
58843;BME280;44614;54.356;10.100;2022-09-02T08:22:38;102033.59;;;18.87;45.40
58843;BME280;44614;54.356;10.100;2022-09-02T08:25:04;102025.03;;;18.77;53.79
58843;BME280;44614;54.356;10.100;2022-09-02T08:27:29;101968.44;;;18.42;52.55
58843;BME280;44614;54.356;10.100;2022-09-02T08:29:56;102023.44;;;18.81;45.26
58843;BME280;44614;54.356;10.100;2022-09-02T08:32:21;102024.25;;;18.93;52.75
58843;BME280;44614;54.356;10.100;2022-09-02T08:34:46;102019.88;;;18.97;52.54
58843;BME280;44614;54.356;10.100;2022-09-02T08:37:12;102027.97;;;19.15;52.07
58843;BME280;44614;54.356;10.100;2022-09-02T08:39:37;102024.69;;;19.18;51.90
58843;BME280;44614;54.356;10.100;2022-09-02T08:44:38;102027.72;;;19.34;50.44
58843;BME280;44614;54.356;10.100;2022-09-02T08:47:08;102027.56;;;19.40;51.47
58843;BME280;44614;54.356;10.100;2022-09-02T08:49:51;102021.00;;;19.63;50.09
58843;BME280;44614;54.356;10.100;2022-09-02T08:55:20;102012.09;;;19.83;50.38
58843;BME280;44614;54.356;10.100;2022-09-02T08:57:49;102032.66;;;19.99;48.02
58843;BME280;44614;54.356;10.100;2022-09-02T09:00:15;102018.72;;;19.99;49.35
58843;BME280;44614;54.356;10.100;2022-09-02T09:03:03;101999.75;;;19.96;45.84
58843;BME280;44614;54.356;10.100;2022-09-02T09:08:36;102009.72;;;19.92;47.25
58843;BME280;44614;54.356;10.100;2022-09-02T09:11:13;102000.81;;;19.95;48.49
58843;BME280;44614;54.356;10.100;2022-09-02T09:19:21;102025.03;;;20.33;47.95
58843;BME280;44614;54.356;10.100;2022-09-02T09:21:54;101989.69;;;20.39;48.13
58843;BME280;44614;54.356;10.100;2022-09-02T09:24:31;101996.28;;;20.33;47.41
58843;BME280;44614;54.356;10.100;2022-09-02T09:27:00;102001.50;;;20.24;46.46
58843;BME280;44614;54.356;10.100;2022-09-02T09:29:31;101987.94;;;20.11;46.84
58843;BME280;44614;54.356;10.100;2022-09-02T09:31:57;102003.44;;;20.02;48.84
58843;BME280;44614;54.356;10.100;2022-09-02T09:34:24;101992.72;;;19.93;48.77
58843;BME280;44614;54.356;10.100;2022-09-02T09:37:09;102000.72;;;19.85;48.89
58843;BME280;44614;54.356;10.100;2022-09-02T09:39:35;101995.41;;;19.66;49.16
58843;BME280;44614;54.356;10.100;2022-09-02T09:42:02;101988.41;;;19.64;49.46
58843;BME280;44614;54.356;10.100;2022-09-02T09:44:41;101985.28;;;19.77;49.22
58843;BME280;44614;54.356;10.100;2022-09-02T09:47:20;101987.81;;;20.01;48.41
58843;BME280;44614;54.356;10.100;2022-09-02T09:50:10;101985.22;;;20.16;45.04
58843;BME280;44614;54.356;10.100;2022-09-02T09:52:36;101948.06;;;19.88;47.12
58843;BME280;44614;54.356;10.100;2022-09-02T09:55:06;101980.13;;;19.91;47.82
58843;BME280;44614;54.356;10.100;2022-09-02T09:57:31;101937.56;;;19.74;46.87
58843;BME280;44614;54.356;10.100;2022-09-02T09:59:57;101937.50;;;19.90;46.70
58843;BME280;44614;54.356;10.100;2022-09-02T10:02:26;101941.38;;;20.11;45.89
58843;BME280;44614;54.356;10.100;2022-09-02T10:04:54;101965.03;;;20.31;44.90
58843;BME280;44614;54.356;10.100;2022-09-02T10:07:39;101927.78;;;19.93;44.81
58843;BME280;44614;54.356;10.100;2022-09-02T10:10:20;101958.06;;;20.33;44.70
58843;BME280;44614;54.356;10.100;2022-09-02T10:12:47;101949.97;;;20.32;45.92
58843;BME280;44614;54.356;10.100;2022-09-02T10:15:13;101946.72;;;20.40;45.38
58843;BME280;44614;54.356;10.100;2022-09-02T10:17:54;101945.69;;;20.46;44.75
58843;BME280;44614;54.356;10.100;2022-09-02T10:23:29;101945.16;;;20.00;40.89
58843;BME280;44614;54.356;10.100;2022-09-02T10:34:44;101934.84;;;20.23;43.80
58843;BME280;44614;54.356;10.100;2022-09-02T10:37:26;101916.00;;;20.35;43.09
58843;BME280;44614;54.356;10.100;2022-09-02T10:48:55;101894.84;;;20.39;39.16
58843;BME280;44614;54.356;10.100;2022-09-02T10:51:40;101894.63;;;20.45;39.92
58843;BME280;44614;54.356;10.100;2022-09-02T10:54:41;101910.88;;;20.81;40.89
58843;BME280;44614;54.356;10.100;2022-09-02T10:57:18;101914.63;;;20.91;37.05
58843;BME280;44614;54.356;10.100;2022-09-02T11:02:48;101912.47;;;20.72;40.62
58843;BME280;44614;54.356;10.100;2022-09-02T11:10:24;101913.03;;;20.47;40.82
58843;BME280;44614;54.356;10.100;2022-09-02T11:13:06;101917.38;;;20.59;42.22
58843;BME280;44614;54.356;10.100;2022-09-02T11:15:52;101913.78;;;20.64;38.40
58843;BME280;44614;54.356;10.100;2022-09-02T11:18:31;101907.38;;;20.63;42.33
58843;BME280;44614;54.356;10.100;2022-09-02T11:21:02;101913.56;;;20.71;41.53
58843;BME280;44614;54.356;10.100;2022-09-02T11:23:37;101912.94;;;20.63;41.08
58843;BME280;44614;54.356;10.100;2022-09-02T11:26:31;101896.81;;;20.71;38.91
58843;BME280;44614;54.356;10.100;2022-09-02T11:32:40;101892.25;;;20.59;37.96
58843;BME280;44614;54.356;10.100;2022-09-02T11:35:13;101857.75;;;20.43;38.23
58843;BME280;44614;54.356;10.100;2022-09-02T11:37:53;101886.19;;;20.67;40.29
58843;BME280;44614;54.356;10.100;2022-09-02T11:43:02;101846.81;;;20.37;40.12
58843;BME280;44614;54.356;10.100;2022-09-02T11:54:32;101880.69;;;20.45;38.26
58843;BME280;44614;54.356;10.100;2022-09-02T11:57:01;101876.34;;;20.33;40.32
58843;BME280;44614;54.356;10.100;2022-09-02T12:02:39;101867.78;;;20.39;36.11
58843;BME280;44614;54.356;10.100;2022-09-02T12:07:57;101855.34;;;20.52;39.08
58843;BME280;44614;54.356;10.100;2022-09-02T12:21:19;101847.44;;;21.56;40.11
58843;BME280;44614;54.356;10.100;2022-09-02T12:26:14;101826.00;;;21.82;39.29
58843;BME280;44614;54.356;10.100;2022-09-02T12:28:44;101846.50;;;22.13;37.92
58843;BME280;44614;54.356;10.100;2022-09-02T12:31:43;101832.88;;;22.47;38.18
58843;BME280;44614;54.356;10.100;2022-09-02T12:36:59;101831.59;;;23.50;38.77
58843;BME280;44614;54.356;10.100;2022-09-02T12:44:45;101819.88;;;23.43;35.94
58843;BME280;44614;54.356;10.100;2022-09-02T12:50:01;101820.97;;;23.42;38.33
58843;BME280;44614;54.356;10.100;2022-09-02T12:57:43;101804.75;;;24.38;37.73
58843;BME280;44614;54.356;10.100;2022-09-02T13:00:13;101797.44;;;24.03;36.76
58843;BME280;44614;54.356;10.100;2022-09-02T13:20:16;101809.56;;;23.93;34.44
58843;BME280;44614;54.356;10.100;2022-09-02T13:30:43;101798.22;;;24.82;36.38
58843;BME280;44614;54.356;10.100;2022-09-02T13:33:13;101796.56;;;24.76;36.98
58843;BME280;44614;54.356;10.100;2022-09-02T13:35:40;101757.72;;;24.25;37.43
58843;BME280;44614;54.356;10.100;2022-09-02T13:38:12;101790.03;;;24.56;37.52
58843;BME280;44614;54.356;10.100;2022-09-02T13:40:39;101789.94;;;24.67;37.03
58843;BME280;44614;54.356;10.100;2022-09-02T13:45:36;101772.75;;;24.73;37.27
58843;BME280;44614;54.356;10.100;2022-09-02T13:48:07;101747.78;;;24.43;35.34
58843;BME280;44614;54.356;10.100;2022-09-02T13:50:34;101769.03;;;24.49;37.02
58843;BME280;44614;54.356;10.100;2022-09-02T13:53:04;101744.72;;;24.34;35.62
58843;BME280;44614;54.356;10.100;2022-09-02T13:55:32;101772.06;;;24.58;36.85
58843;BME280;44614;54.356;10.100;2022-09-02T13:58:03;101782.59;;;24.37;36.46
58843;BME280;44614;54.356;10.100;2022-09-02T14:00:33;101768.59;;;23.97;36.99
58843;BME280;44614;54.356;10.100;2022-09-02T14:03:19;101744.81;;;23.30;36.61
58843;BME280;44614;54.356;10.100;2022-09-02T14:05:48;101767.06;;;22.80;39.09
58843;BME280;44614;54.356;10.100;2022-09-02T14:08:17;101759.50;;;22.91;39.23
58843;BME280;44614;54.356;10.100;2022-09-02T14:10:44;101768.69;;;23.17;38.42
58843;BME280;44614;54.356;10.100;2022-09-02T14:13:14;101758.47;;;23.47;38.07
58843;BME280;44614;54.356;10.100;2022-09-02T14:15:40;101755.97;;;23.40;38.03
58843;BME280;44614;54.356;10.100;2022-09-02T14:20:33;101752.16;;;23.21;37.74
58843;BME280;44614;54.356;10.100;2022-09-02T14:22:59;101740.91;;;23.26;38.06
58843;BME280;44614;54.356;10.100;2022-09-02T14:25:28;101752.69;;;23.28;37.89
58843;BME280;44614;54.356;10.100;2022-09-02T14:27:58;101726.19;;;22.95;37.58
58843;BME280;44614;54.356;10.100;2022-09-02T14:30:37;101733.78;;;22.58;37.47
58843;BME280;44614;54.356;10.100;2022-09-02T14:33:19;101625.84;;;21.91;38.76
58843;BME280;44614;54.356;10.100;2022-09-02T14:36:05;101747.75;;;22.69;38.04
58843;BME280;44614;54.356;10.100;2022-09-02T14:41:18;101737.16;;;22.45;38.57
58843;BME280;44614;54.356;10.100;2022-09-02T14:43:54;101740.81;;;22.41;38.25
58843;BME280;44614;54.356;10.100;2022-09-02T14:46:30;101747.22;;;22.21;39.08
58843;BME280;44614;54.356;10.100;2022-09-02T14:49:20;101738.25;;;21.98;39.27
58843;BME280;44614;54.356;10.100;2022-09-02T14:51:49;101739.34;;;21.82;39.83
58843;BME280;44614;54.356;10.100;2022-09-02T14:56:59;101736.00;;;21.80;39.80
58843;BME280;44614;54.356;10.100;2022-09-02T14:59:25;101729.25;;;21.65;40.32